createdAt,value
2022-10-19T00:02:21.847Z,93.53
2022-10-19T00:04:45.673Z,92.99
2022-10-19T00:07:09.255Z,92.39
2022-10-19T00:09:34.206Z,92.83
2022-10-19T00:11:57.707Z,93.49
2022-10-19T00:14:23.870Z,94.23
2022-10-19T00:16:49.096Z,93.27
2022-10-19T00:19:18.343Z,94.23
2022-10-19T00:21:42.262Z,94.13
2022-10-19T00:24:06.827Z,94.52
2022-10-19T00:26:31.755Z,93.08
2022-10-19T00:28:55.838Z,94.07
2022-10-19T00:31:19.794Z,92.67
2022-10-19T00:33:46.403Z,93.96
2022-10-19T00:36:17.684Z,93.27
2022-10-19T00:38:43.462Z,93.72
2022-10-19T00:41:07.214Z,93.48
2022-10-19T00:43:33.275Z,92.35
2022-10-19T00:45:56.780Z,92.22
2022-10-19T00:48:25.809Z,92.40
2022-10-19T00:50:51.716Z,91.64
2022-10-19T00:53:15.999Z,90.67
2022-10-19T00:55:40.919Z,90.14
2022-10-19T00:58:04.723Z,90.99
2022-10-19T01:00:29.916Z,89.76
2022-10-19T01:02:53.527Z,90.31
2022-10-19T01:05:18.897Z,91.54
2022-10-19T01:07:42.991Z,91.16
2022-10-19T01:10:07.928Z,92.00
2022-10-19T01:13:09.047Z,89.95
2022-10-19T01:15:42.881Z,90.21
2022-10-19T01:18:15.715Z,91.18
2022-10-19T01:21:10.351Z,91.36
2022-10-19T01:24:23.583Z,89.52
2022-10-19T01:27:17.375Z,88.55
2022-10-19T01:30:05.051Z,88.72
2022-10-19T01:32:43.815Z,89.93
2022-10-19T01:35:12.960Z,87.29
2022-10-19T01:37:45.452Z,88.19
2022-10-19T01:40:13.980Z,88.36
2022-10-19T01:42:46.182Z,87.42
2022-10-19T01:45:19.014Z,88.52
2022-10-19T01:47:51.605Z,88.43
2022-10-19T01:50:20.498Z,87.95
2022-10-19T01:52:45.324Z,88.69
2022-10-19T01:55:11.848Z,89.92
2022-10-19T01:57:41.052Z,88.54
2022-10-19T02:00:11.366Z,88.97
2022-10-19T02:02:42.290Z,89.70
2022-10-19T02:05:09.219Z,88.71
2022-10-19T02:07:34.164Z,87.81
2022-10-19T02:09:58.266Z,88.24
2022-10-19T02:12:22.921Z,88.55
2022-10-19T02:14:52.214Z,89.75
2022-10-19T02:17:22.413Z,90.04
2022-10-19T02:19:46.224Z,88.65
2022-10-19T02:22:10.427Z,90.67
2022-10-19T02:24:34.083Z,89.01
2022-10-19T02:26:58.231Z,89.58
2022-10-19T02:29:22.171Z,89.65
2022-10-19T02:31:46.339Z,89.25
2022-10-19T02:34:12.172Z,89.53
2022-10-19T02:36:35.843Z,90.84
2022-10-19T02:38:59.526Z,89.45
2022-10-19T02:41:28.432Z,90.79
2022-10-19T02:43:57.536Z,89.58
2022-10-19T02:46:27.128Z,89.35
2022-10-19T02:48:52.392Z,89.98
2022-10-19T02:51:38.074Z,90.80
2022-10-19T02:54:04.952Z,89.61
2022-10-19T02:56:29.235Z,90.41
2022-10-19T02:58:52.836Z,89.13
2022-10-19T03:01:20.773Z,88.82
2022-10-19T03:03:44.382Z,88.59
2022-10-19T03:06:07.983Z,88.57
2022-10-19T03:08:32.959Z,89.46
2022-10-19T03:10:59.751Z,88.08
2022-10-19T03:13:23.354Z,88.92
2022-10-19T03:15:47.522Z,88.40
2022-10-19T03:18:11.115Z,88.28
2022-10-19T03:20:34.638Z,87.18
2022-10-19T03:22:58.196Z,87.29
2022-10-19T03:25:23.141Z,87.63
2022-10-19T03:27:48.139Z,88.54
2022-10-19T03:30:12.577Z,89.23
2022-10-19T03:32:36.200Z,87.61
2022-10-19T03:34:59.720Z,87.41
2022-10-19T03:37:23.336Z,87.16
2022-10-19T03:39:46.838Z,86.89
2022-10-19T03:42:11.879Z,86.74
2022-10-19T03:44:35.468Z,86.79
2022-10-19T03:46:59.082Z,86.46
2022-10-19T03:49:23.187Z,87.00
2022-10-19T03:51:46.842Z,87.37
2022-10-19T03:54:15.880Z,86.64
2022-10-19T03:56:39.517Z,86.13
2022-10-19T03:59:06.410Z,86.76
2022-10-19T04:01:33.865Z,85.97
2022-10-19T04:03:59.300Z,85.56
2022-10-19T04:06:30.236Z,87.82
2022-10-19T04:08:54.212Z,87.50
2022-10-19T04:11:24.877Z,87.44
2022-10-19T04:13:50.609Z,85.46
2022-10-19T04:16:15.703Z,87.02
2022-10-19T04:18:39.264Z,86.96
2022-10-19T04:21:05.082Z,86.22
2022-10-19T04:23:30.655Z,87.61
2022-10-19T04:25:54.207Z,87.04
2022-10-19T04:28:17.735Z,86.36
2022-10-19T04:30:41.238Z,86.95
2022-10-19T04:33:06.222Z,88.00
2022-10-19T04:35:29.736Z,86.25
2022-10-19T04:37:53.349Z,88.70
2022-10-19T04:40:17.026Z,86.67
2022-10-19T04:42:40.597Z,86.91
2022-10-19T04:45:04.445Z,89.33
2022-10-19T04:47:27.999Z,88.00
2022-10-19T04:49:52.887Z,86.74
2022-10-19T04:52:16.506Z,86.34
2022-10-19T04:54:40.020Z,86.73
2022-10-19T04:57:03.553Z,86.59
2022-10-19T04:59:27.198Z,86.75
2022-10-19T05:01:50.766Z,85.75
2022-10-19T05:04:14.259Z,85.93
2022-10-19T05:06:39.491Z,86.99
2022-10-19T05:09:03.060Z,86.56
2022-10-19T05:11:27.243Z,85.85
2022-10-19T05:13:51.127Z,85.69
2022-10-19T05:16:17.941Z,87.01
2022-10-19T05:18:42.286Z,88.60
2022-10-19T05:21:08.915Z,89.05
2022-10-19T05:23:33.948Z,89.31
2022-10-19T05:26:05.386Z,88.06
2022-10-19T05:28:29.102Z,88.55
2022-10-19T05:30:52.675Z,87.29
2022-10-19T05:33:16.226Z,86.18
2022-10-19T05:35:39.763Z,87.08
2022-10-19T05:38:03.385Z,86.47
2022-10-19T05:40:28.699Z,87.82
2022-10-19T05:42:52.432Z,88.98
2022-10-19T05:45:16.211Z,87.86
2022-10-19T05:47:39.900Z,87.90
2022-10-19T05:50:03.519Z,88.09
2022-10-19T05:52:27.128Z,87.82
2022-10-19T05:54:50.701Z,90.12
2022-10-19T05:57:15.723Z,88.78
2022-10-19T05:59:39.242Z,88.19
2022-10-19T06:02:02.927Z,88.12
2022-10-19T06:04:26.833Z,88.19
2022-10-19T06:06:50.425Z,88.91
2022-10-19T06:09:14.272Z,89.10
2022-10-19T06:11:41.544Z,88.55
2022-10-19T06:14:09.700Z,89.31
2022-10-19T06:16:34.442Z,88.31
2022-10-19T06:18:58.683Z,88.69
2022-10-19T06:21:26.734Z,88.38
2022-10-19T06:23:52.359Z,87.74
2022-10-19T06:26:16.391Z,88.90
2022-10-19T06:28:42.193Z,89.99
2022-10-19T06:31:09.188Z,88.23
2022-10-19T06:33:33.176Z,89.03
2022-10-19T06:35:56.874Z,88.46
2022-10-19T06:38:20.397Z,89.20
2022-10-19T06:40:43.962Z,89.16
2022-10-19T06:43:07.538Z,87.92
2022-10-19T06:45:35.752Z,89.63
2022-10-19T06:48:04.995Z,89.42
2022-10-19T06:50:31.912Z,89.04
2022-10-19T06:52:55.464Z,90.19
2022-10-19T06:55:19.166Z,89.92
2022-10-19T06:57:42.667Z,89.51
2022-10-19T07:00:08.272Z,89.30
2022-10-19T07:02:31.844Z,88.83
2022-10-19T07:04:56.790Z,89.78
2022-10-19T07:07:20.297Z,89.87
2022-10-19T07:09:43.886Z,90.23
2022-10-19T07:12:08.496Z,88.37
2022-10-19T07:14:38.620Z,87.93
2022-10-19T07:17:02.251Z,88.33
2022-10-19T07:19:27.947Z,88.32
2022-10-19T07:21:54.088Z,88.12
2022-10-19T07:24:17.631Z,87.68
2022-10-19T07:26:41.364Z,87.32
2022-10-19T07:29:05.296Z,86.21
2022-10-19T07:31:30.209Z,88.25
2022-10-19T07:33:55.017Z,86.83
2022-10-19T07:36:18.570Z,85.29
2022-10-19T07:38:43.538Z,86.12
2022-10-19T07:41:09.572Z,86.29
2022-10-19T07:43:33.173Z,84.54
2022-10-19T07:46:00.435Z,86.19
2022-10-19T07:48:23.933Z,83.65
2022-10-19T07:50:50.036Z,83.96
2022-10-19T07:53:13.555Z,85.01
2022-10-19T07:55:38.556Z,85.16
2022-10-19T07:58:02.138Z,82.01
2022-10-19T08:00:25.920Z,84.38
2022-10-19T08:03:05.123Z,84.51
2022-10-19T08:05:34.528Z,84.74
2022-10-19T08:07:58.084Z,84.94
2022-10-19T08:10:21.720Z,83.24
2022-10-19T08:12:46.829Z,82.78
2022-10-19T08:15:11.263Z,80.89
2022-10-19T08:17:37.711Z,82.25
2022-10-19T08:20:01.296Z,82.81
2022-10-19T08:22:24.828Z,81.49
2022-10-19T08:24:48.407Z,82.77
2022-10-19T08:27:11.971Z,80.31
2022-10-19T08:29:36.891Z,80.44
2022-10-19T08:32:01.146Z,81.12
2022-10-19T08:34:25.331Z,78.89
2022-10-19T08:36:48.899Z,80.48
2022-10-19T08:39:13.978Z,79.05
2022-10-19T08:41:53.821Z,80.30
2022-10-19T08:44:43.349Z,77.73
2022-10-19T08:47:22.325Z,78.95
2022-10-19T08:49:47.755Z,77.79
2022-10-19T08:52:16.750Z,78.80
2022-10-19T08:57:26.768Z,75.70
2022-10-19T08:59:58.747Z,75.42
2022-10-19T09:02:37.672Z,75.68
2022-10-19T09:05:08.879Z,76.25
2022-10-19T09:07:37.533Z,78.19
2022-10-19T09:10:06.607Z,75.53
2022-10-19T09:12:42.807Z,76.79
2022-10-19T09:15:13.482Z,76.33
2022-10-19T09:17:37.125Z,75.97
2022-10-19T09:20:16.440Z,76.26
2022-10-19T09:22:40.323Z,74.49
2022-10-19T09:25:11.811Z,74.86
2022-10-19T09:27:39.697Z,75.83
2022-10-19T09:30:10.926Z,77.55
2022-10-19T09:32:37.885Z,73.67
2022-10-19T09:35:04.852Z,74.74
2022-10-19T09:39:57.926Z,76.05
2022-10-19T09:42:26.306Z,72.92
2022-10-19T09:44:51.224Z,74.06
2022-10-19T09:47:38.170Z,72.13
2022-10-19T09:50:20.258Z,72.36
2022-10-19T09:52:45.712Z,75.37
2022-10-19T09:55:26.336Z,72.97
2022-10-19T09:57:52.162Z,68.12
2022-10-19T10:00:20.306Z,66.53
2022-10-19T10:02:51.391Z,69.60
2022-10-19T10:05:16.706Z,67.36
2022-10-19T10:07:41.086Z,63.70
2022-10-19T10:10:12.337Z,61.22
2022-10-19T10:12:37.024Z,61.46
2022-10-19T10:15:00.923Z,59.56
2022-10-19T10:17:30.459Z,56.16
2022-10-19T10:20:19.578Z,56.09
2022-10-19T10:22:57.410Z,54.31
2022-10-19T10:25:22.827Z,53.76
2022-10-19T10:27:59.156Z,50.67
2022-10-19T10:30:22.758Z,53.22
2022-10-19T10:32:51.683Z,51.51
2022-10-19T10:35:22.796Z,52.23
2022-10-19T10:37:48.523Z,50.87
2022-10-19T10:40:24.599Z,54.02
2022-10-19T10:42:50.538Z,54.44
2022-10-19T10:45:21.827Z,51.96
2022-10-19T10:47:48.347Z,56.57
2022-10-19T10:50:23.144Z,55.55
2022-10-19T10:53:02.066Z,54.71
2022-10-19T10:55:26.604Z,56.50
2022-10-19T10:57:55.952Z,53.10
2022-10-19T11:00:22.086Z,54.92
2022-10-19T11:02:50.851Z,55.67
2022-10-19T11:05:23.020Z,55.56
2022-10-19T11:07:49.763Z,55.37
2022-10-19T11:10:31.631Z,54.53
2022-10-19T11:13:05.994Z,53.94
2022-10-19T11:15:36.316Z,53.10
2022-10-19T11:18:13.108Z,55.75
2022-10-19T11:20:44.541Z,52.90
2022-10-19T11:23:16.347Z,57.13
2022-10-19T11:25:54.643Z,58.58
2022-10-19T11:28:36.047Z,55.15
2022-10-19T11:31:16.615Z,58.19
2022-10-19T11:33:55.087Z,55.48
2022-10-19T11:36:42.823Z,55.45
2022-10-19T11:39:23.032Z,57.42
2022-10-19T11:41:59.470Z,58.56
2022-10-19T11:44:40.238Z,56.25
2022-10-19T11:47:29.149Z,56.39
2022-10-19T11:50:03.271Z,57.37
2022-10-19T11:52:38.816Z,55.52
2022-10-19T11:55:14.418Z,57.42
2022-10-19T11:57:48.282Z,58.53
2022-10-19T12:00:37.580Z,59.09
2022-10-19T12:03:50.195Z,53.92
2022-10-19T12:06:21.218Z,56.27
2022-10-19T12:09:06.450Z,58.41
2022-10-19T12:11:56.819Z,54.00
2022-10-19T12:14:25.875Z,52.24
2022-10-19T12:16:54.520Z,56.34
2022-10-19T12:19:22.979Z,56.34
2022-10-19T12:21:47.915Z,56.30
2022-10-19T12:24:19.115Z,55.88
2022-10-19T12:26:43.112Z,54.95
2022-10-19T12:29:14.484Z,55.72
2022-10-19T12:31:38.430Z,55.94
2022-10-19T12:34:11.000Z,59.09
2022-10-19T12:36:42.691Z,59.26
2022-10-19T12:39:18.511Z,58.97
2022-10-19T12:41:52.269Z,59.63
2022-10-19T12:44:47.894Z,59.85
2022-10-19T12:47:18.223Z,57.95
2022-10-19T12:49:52.523Z,56.11
2022-10-19T12:52:19.263Z,60.31
2022-10-19T12:54:45.469Z,54.42
2022-10-19T12:57:27.766Z,57.46
2022-10-19T13:00:06.034Z,55.48
2022-10-19T13:05:02.503Z,55.27
2022-10-19T13:07:28.418Z,55.58
2022-10-19T13:10:01.982Z,59.18
2022-10-19T13:12:41.058Z,56.85
2022-10-19T13:15:06.808Z,56.67
2022-10-19T13:17:49.019Z,56.63
2022-10-19T13:20:52.935Z,56.46
2022-10-19T13:23:42.880Z,57.79
2022-10-19T13:26:34.710Z,58.32
2022-10-19T13:28:58.488Z,59.72
2022-10-19T13:31:28.523Z,60.86
2022-10-19T13:33:55.016Z,57.07
2022-10-19T13:36:19.927Z,57.16
2022-10-19T13:38:46.314Z,58.69
2022-10-19T13:41:30.007Z,58.05
2022-10-19T13:44:05.063Z,58.89
2022-10-19T13:46:47.831Z,57.11
2022-10-19T13:49:44.579Z,58.64
2022-10-19T13:52:53.853Z,59.70
2022-10-19T13:56:03.566Z,60.93
2022-10-19T13:59:22.539Z,58.40
2022-10-19T14:02:17.037Z,57.75
2022-10-19T14:04:49.675Z,58.14
2022-10-19T14:07:17.853Z,58.39
2022-10-19T14:10:09.244Z,59.76
2022-10-19T14:12:36.819Z,58.78
2022-10-19T14:15:01.793Z,58.79
2022-10-19T14:17:30.146Z,56.37
2022-10-19T14:19:57.162Z,55.88
2022-10-19T14:22:26.474Z,57.73
2022-10-19T14:24:50.314Z,58.17
2022-10-19T14:27:22.487Z,57.64
2022-10-19T14:29:48.581Z,57.76
2022-10-19T14:32:14.138Z,58.29
2022-10-19T14:34:42.302Z,60.60
2022-10-19T14:37:05.903Z,58.48
2022-10-19T14:39:33.731Z,60.27
2022-10-19T14:41:59.405Z,57.90
2022-10-19T14:44:40.909Z,56.64
2022-10-19T14:47:23.175Z,57.54
2022-10-19T14:49:47.118Z,57.10
2022-10-19T14:52:13.333Z,57.73
2022-10-19T14:54:40.893Z,55.87
2022-10-19T14:57:08.958Z,58.02
2022-10-19T14:59:37.379Z,57.25
2022-10-19T15:02:05.444Z,57.00
2022-10-19T15:04:34.463Z,57.72
2022-10-19T15:06:59.487Z,59.00
2022-10-19T15:09:37.802Z,57.79
2022-10-19T15:12:17.110Z,59.08
2022-10-19T15:14:40.851Z,58.75
2022-10-19T15:17:06.922Z,60.59
2022-10-19T15:19:35.160Z,59.41
2022-10-19T15:22:17.617Z,59.14
2022-10-19T15:24:42.743Z,60.52
2022-10-19T15:27:21.855Z,59.19
2022-10-19T15:29:56.298Z,59.84
2022-10-19T15:32:24.734Z,61.85
2022-10-19T15:34:49.694Z,62.74
2022-10-19T15:37:21.850Z,61.07
2022-10-19T15:39:45.879Z,64.87
2022-10-19T15:42:36.264Z,64.13
2022-10-19T15:45:00.203Z,63.99
2022-10-19T15:47:25.544Z,65.49
2022-10-19T15:50:32.573Z,65.65
2022-10-19T15:52:57.502Z,66.24
2022-10-19T15:55:21.027Z,66.70
2022-10-19T15:57:44.642Z,67.53
2022-10-19T16:00:15.162Z,68.17
2022-10-19T16:02:39.085Z,68.35
2022-10-19T16:05:02.788Z,68.89
2022-10-19T16:07:29.887Z,69.46
2022-10-19T16:09:55.495Z,70.11
2022-10-19T16:12:19.415Z,70.49
2022-10-19T16:14:43.287Z,71.15
2022-10-19T16:17:06.960Z,71.05
2022-10-19T16:19:30.549Z,70.93
2022-10-19T16:21:54.347Z,72.18
2022-10-19T16:24:17.852Z,72.30
2022-10-19T16:26:42.831Z,72.76
2022-10-19T16:29:06.437Z,72.65
2022-10-19T16:31:31.462Z,73.05
2022-10-19T16:33:55.018Z,73.41
2022-10-19T16:36:20.270Z,73.69
2022-10-19T16:38:43.806Z,74.52
2022-10-19T16:41:10.128Z,74.97
2022-10-19T16:43:35.358Z,75.05
2022-10-19T16:45:59.375Z,75.53
2022-10-19T16:48:23.997Z,75.30
2022-10-19T16:51:16.750Z,76.00
2022-10-19T16:53:40.598Z,76.46
2022-10-19T16:56:06.750Z,76.30
2022-10-19T16:58:30.396Z,76.85
2022-10-19T17:00:56.293Z,76.72
2022-10-19T17:03:19.845Z,76.58
2022-10-19T17:05:43.545Z,77.06
2022-10-19T17:08:08.336Z,77.42
2022-10-19T17:10:31.919Z,77.52
2022-10-19T17:12:55.459Z,77.61
2022-10-19T17:18:05.853Z,78.07
2022-10-19T17:20:29.452Z,78.68
2022-10-19T17:22:53.635Z,78.79
2022-10-19T17:25:17.259Z,78.69
2022-10-19T17:27:41.014Z,79.33
2022-10-19T17:30:05.148Z,79.21
2022-10-19T17:32:28.791Z,79.37
2022-10-19T17:34:55.249Z,79.64
2022-10-19T17:37:18.831Z,79.35
2022-10-19T17:39:42.395Z,79.54
2022-10-19T17:42:05.969Z,79.48
2022-10-19T17:44:30.664Z,80.22
2022-10-19T17:46:54.494Z,80.57
2022-10-19T17:49:18.816Z,80.54
2022-10-19T17:51:44.587Z,79.98
2022-10-19T17:54:11.896Z,80.17
2022-10-19T17:56:37.411Z,80.16
2022-10-19T17:59:02.987Z,80.11
2022-10-19T18:01:28.133Z,80.43
2022-10-19T18:03:52.322Z,80.47
2022-10-19T18:06:18.213Z,80.45
2022-10-19T18:08:46.112Z,81.31
2022-10-19T18:11:13.519Z,80.64
2022-10-19T18:16:09.235Z,80.34
2022-10-19T18:18:35.929Z,80.87
2022-10-19T18:20:59.941Z,80.80
2022-10-19T18:23:23.579Z,80.57
2022-10-19T18:25:54.209Z,80.80
2022-10-19T18:28:18.562Z,80.79
2022-10-19T18:30:45.166Z,82.03
2022-10-19T18:33:08.988Z,81.71
2022-10-19T18:35:36.898Z,81.97
2022-10-19T18:38:00.569Z,82.12
2022-10-19T18:40:24.482Z,82.20
2022-10-19T18:42:49.466Z,82.38
2022-10-19T18:45:13.123Z,82.13
2022-10-19T18:47:36.924Z,81.70
2022-10-19T18:50:00.447Z,82.54
2022-10-19T18:52:24.064Z,82.40
2022-10-19T18:54:47.729Z,81.24
2022-10-19T18:57:11.299Z,82.12
2022-10-19T18:59:36.330Z,82.48
2022-10-19T19:01:59.967Z,81.92
2022-10-19T19:04:23.510Z,82.34
2022-10-19T19:06:47.091Z,82.09
2022-10-19T19:09:12.922Z,82.59
2022-10-19T19:11:38.536Z,81.96
2022-10-19T19:14:06.196Z,82.81
2022-10-19T19:16:36.291Z,82.38
2022-10-19T19:18:59.912Z,82.82
2022-10-19T19:21:26.822Z,83.15
2022-10-19T19:23:51.851Z,82.65
2022-10-19T19:26:16.615Z,82.27
2022-10-19T19:28:41.917Z,82.33
2022-10-19T19:31:07.470Z,83.16
2022-10-19T19:33:32.466Z,82.99
2022-10-19T19:35:56.023Z,82.71
2022-10-19T19:38:19.947Z,82.63
2022-10-19T19:40:45.486Z,82.77
2022-10-19T19:43:09.192Z,82.67
2022-10-19T19:45:32.762Z,83.14
2022-10-19T19:47:56.327Z,84.33
2022-10-19T19:50:21.280Z,83.25
2022-10-19T19:52:44.846Z,82.63
2022-10-19T19:55:09.297Z,83.33
2022-10-19T19:57:33.104Z,83.49
2022-10-19T19:59:56.842Z,83.77
2022-10-19T20:02:21.169Z,83.63
2022-10-19T20:04:44.755Z,83.22
2022-10-19T20:07:09.695Z,83.40
2022-10-19T20:09:33.483Z,85.33
2022-10-19T20:11:57.080Z,84.19
2022-10-19T20:14:21.502Z,83.39
2022-10-19T20:16:45.089Z,83.82
2022-10-19T20:19:10.953Z,84.31
2022-10-19T20:21:34.761Z,84.54
2022-10-19T20:23:59.687Z,84.13
2022-10-19T20:26:25.355Z,83.73
2022-10-19T20:28:49.479Z,83.96
2022-10-19T20:31:14.047Z,84.55
2022-10-19T20:33:39.744Z,84.04
2022-10-19T20:36:06.519Z,84.03
2022-10-19T20:38:30.066Z,85.24
2022-10-19T20:40:54.991Z,84.33
2022-10-19T20:43:18.537Z,84.19
2022-10-19T20:45:42.206Z,84.55
2022-10-19T20:48:06.032Z,84.29
2022-10-19T20:50:29.554Z,83.33
2022-10-19T20:52:53.091Z,83.33
2022-10-19T20:55:16.904Z,83.45
2022-10-19T20:57:41.867Z,84.54
2022-10-19T21:00:06.861Z,84.44
2022-10-19T21:02:30.441Z,83.98
2022-10-19T21:04:54.063Z,84.29
2022-10-19T21:07:17.624Z,84.60
2022-10-19T21:09:41.142Z,84.18
2022-10-19T21:12:04.934Z,83.45
2022-10-19T21:14:31.507Z,83.33
2022-10-19T21:16:56.490Z,84.09
2022-10-19T21:19:25.242Z,83.87
2022-10-19T21:21:52.590Z,83.57
2022-10-19T21:24:18.422Z,84.23
2022-10-19T21:26:42.163Z,83.68
2022-10-19T21:29:09.407Z,83.76
2022-10-19T21:31:34.475Z,84.40
2022-10-19T21:33:58.259Z,84.21
2022-10-19T21:36:25.070Z,83.98
2022-10-19T21:38:48.975Z,84.44
2022-10-19T21:41:14.961Z,83.79
2022-10-19T21:43:38.559Z,84.38
2022-10-19T21:46:03.905Z,84.23
2022-10-19T21:48:28.863Z,84.56
2022-10-19T21:50:52.507Z,84.60
2022-10-19T21:53:20.486Z,83.72
2022-10-19T21:55:44.033Z,84.46
2022-10-19T21:58:07.572Z,83.95
2022-10-19T22:00:31.673Z,84.56
2022-10-19T22:02:55.181Z,84.47
2022-10-19T22:05:20.114Z,84.00
2022-10-19T22:07:43.743Z,84.58
2022-10-19T22:10:07.945Z,84.16
2022-10-19T22:12:31.611Z,84.13
2022-10-19T22:14:55.239Z,84.15
2022-10-19T22:17:18.762Z,84.87
2022-10-19T22:19:42.346Z,84.68
2022-10-19T22:22:07.327Z,84.71
2022-10-19T22:24:30.914Z,84.62
2022-10-19T22:26:54.578Z,84.94
2022-10-19T22:29:18.413Z,84.01
2022-10-19T22:31:42.962Z,84.88
2022-10-19T22:34:10.436Z,84.30
2022-10-19T22:36:34.002Z,84.94
2022-10-19T22:38:58.993Z,84.57
2022-10-19T22:41:22.601Z,85.36
2022-10-19T22:43:46.236Z,85.45
2022-10-19T22:46:10.012Z,84.92
2022-10-19T22:48:33.675Z,85.18
2022-10-19T22:50:57.735Z,84.37
2022-10-19T22:53:21.515Z,85.41
2022-10-19T22:55:46.441Z,84.67
2022-10-19T23:00:35.226Z,85.04
2022-10-19T23:02:58.839Z,84.56
2022-10-19T23:05:22.718Z,85.11
2022-10-19T23:07:46.357Z,84.65
2022-10-19T23:10:10.494Z,84.95
2022-10-19T23:12:35.555Z,86.16
2022-10-19T23:14:59.129Z,85.88
2022-10-19T23:17:22.699Z,84.84
2022-10-19T23:19:46.262Z,84.80
2022-10-19T23:22:09.851Z,85.50
2022-10-19T23:24:33.459Z,85.04
2022-10-19T23:26:57.027Z,85.20
2022-10-19T23:29:22.189Z,85.52
2022-10-19T23:31:45.790Z,85.37
2022-10-19T23:34:09.360Z,85.81
2022-10-19T23:36:32.971Z,84.91
2022-10-19T23:38:58.382Z,85.60
2022-10-19T23:41:22.785Z,84.84
2022-10-19T23:43:46.711Z,85.76
2022-10-19T23:46:12.102Z,86.73
2022-10-19T23:48:36.581Z,86.03
2022-10-19T23:51:01.769Z,85.14
2022-10-19T23:53:25.666Z,85.49
2022-10-19T23:55:49.189Z,85.00
2022-10-19T23:58:12.764Z,84.84
